Time;durP1;ratioP1;P1;durP2;ratioP2;P2;SDS_P1;SDS_P2;PMS_P1;PMS_P2;Temp;Humidity;BMP_temperature;BMP_pressure;BME280_temperature;BME280_humidity;BME280_pressure;Samples;Min_cycle;Max_cycle;Signal;HPM_P1;HPM_P2
2023/09/07 00:00:20;;;;;;;4.38;3.33;;;;;;;19.95;77.04;101505.97;5014284;28;20064;-83
2023/09/07 00:02:47;;;;;;;6.40;3.17;;;;;;;19.92;77.12;101508.75;5022308;28;20041;-82
2023/09/07 00:05:16;;;;;;;3.65;3.35;;;;;;;19.91;77.80;101495.53;5023142;28;20106;-81
2023/09/07 00:07:42;;;;;;;6.53;3.75;;;;;;;19.86;77.84;101500.13;5031992;28;20129;-84
2023/09/07 00:10:09;;;;;;;3.35;3.15;;;;;;;19.87;77.44;101505.38;5028236;28;20083;-81
2023/09/07 00:12:39;;;;;;;8.95;3.72;;;;;;;19.85;77.94;101503.69;5025525;28;20123;-82
2023/09/07 00:15:07;;;;;;;4.63;3.50;;;;;;;19.79;78.05;101502.94;5019265;28;20037;-82
2023/09/07 00:17:33;;;;;;;3.92;3.38;;;;;;;19.79;78.01;101502.94;5025948;28;20046;-81
2023/09/07 00:20:01;;;;;;;5.60;3.80;;;;;;;19.76;78.16;101489.75;5018179;28;20049;-81
2023/09/07 00:22:27;;;;;;;5.10;3.47;;;;;;;19.74;78.63;101499.59;5025164;28;20145;-81
2023/09/07 00:24:54;;;;;;;3.90;3.58;;;;;;;19.70;78.96;101503.28;5019544;28;20057;-82
2023/09/07 00:27:20;;;;;;;5.78;4.00;;;;;;;19.70;79.10;101497.06;5023379;28;20103;-84
2023/09/07 00:29:47;;;;;;;5.63;3.53;;;;;;;19.72;78.90;101495.25;5018062;28;20045;-84
2023/09/07 00:32:13;;;;;;;6.07;4.18;;;;;;;19.70;79.06;101497.06;5017241;28;20047;-81
2023/09/07 00:34:40;;;;;;;5.20;3.95;;;;;;;19.66;78.84;101502.50;5023422;28;20065;-81
2023/09/07 00:37:07;;;;;;;5.95;3.47;;;;;;;19.65;79.11;101506.06;5017022;28;20555;-81
2023/09/07 00:39:33;;;;;;;6.93;3.83;;;;;;;19.63;79.52;101509.69;5017950;28;20064;-80
2023/09/07 00:42:00;;;;;;;5.13;3.70;;;;;;;19.60;79.12;101497.38;5014920;28;20625;-80
2023/09/07 00:44:26;;;;;;;5.85;4.38;;;;;;;19.57;79.53;101502.81;5023544;28;20103;-80
2023/09/07 00:46:53;;;;;;;5.72;3.22;;;;;;;19.53;79.93;101497.63;5020112;28;20041;-81
2023/09/07 00:49:20;;;;;;;7.53;4.88;;;;;;;19.51;80.32;101495.03;5015087;28;20033;-80
2023/09/07 00:51:47;;;;;;;11.43;3.47;;;;;;;19.46;79.90;101494.31;5022855;28;20045;-83
2023/09/07 00:54:14;;;;;;;5.88;3.75;;;;;;;19.41;80.23;101496.25;5030665;28;20038;-84
2023/09/07 00:56:42;;;;;;;5.20;3.72;;;;;;;19.35;80.43;101497.31;5025974;28;20107;-82
2023/09/07 00:59:09;;;;;;;4.53;3.55;;;;;;;19.32;80.72;101492.09;5021675;28;20525;-82
2023/09/07 01:01:41;;;;;;;4.82;3.65;;;;;;;19.31;81.44;101491.25;5015809;28;20470;-80
2023/09/07 01:04:09;;;;;;;;;;;;;;;19.30;81.49;101496.59;5009575;28;20117;-81
2023/09/07 01:06:52;;;;;;;5.70;4.18;;;;;;;19.27;81.42;101492.25;5021946;28;19920;-81
2023/09/07 01:09:25;;;;;;;6.22;4.30;;;;;;;19.26;80.73;101487.88;5006785;28;20068;-81
2023/09/07 01:11:52;;;;;;;8.77;4.20;;;;;;;19.23;80.95;101490.63;5029768;28;20051;-82
2023/09/07 01:14:22;;;;;;;5.60;3.90;;;;;;;19.21;81.39;101481.84;5020104;28;20053;-82
2023/09/07 01:16:50;;;;;;;6.53;4.10;;;;;;;19.15;82.25;101488.22;5012711;28;20529;-82
2023/09/07 01:19:17;;;;;;;5.50;4.43;;;;;;;19.14;81.52;101490.94;5016925;28;20045;-84
2023/09/07 01:21:44;;;;;;;5.25;4.10;;;;;;;19.10;81.63;101494.56;5020810;28;20069;-80
2023/09/07 01:24:12;;;;;;;7.45;4.25;;;;;;;19.09;81.63;101490.19;5022032;28;20485;-81
2023/09/07 01:26:39;;;;;;;4.35;3.70;;;;;;;19.07;81.99;101489.38;5015761;28;20114;-82
2023/09/07 01:29:09;;;;;;;6.78;4.38;;;;;;;19.04;81.97;101487.69;5017071;28;20067;-80
2023/09/07 01:31:40;;;;;;;7.03;4.38;;;;;;;18.97;82.74;101483.50;5025290;28;20042;-83
2023/09/07 01:34:08;;;;;;;7.72;4.72;;;;;;;18.93;83.13;101488.00;5024115;28;20148;-82
2023/09/07 01:36:37;;;;;;;4.15;3.75;;;;;;;18.89;82.91;101477.50;5015290;28;20042;-83
2023/09/07 01:39:09;;;;;;;7.38;4.90;;;;;;;18.86;83.46;101483.75;5016098;28;20060;-80
2023/09/07 01:41:35;;;;;;;5.57;3.72;;;;;;;18.82;84.42;101479.47;5022252;28;20045;-81
2023/09/07 01:44:02;;;;;;;6.05;4.25;;;;;;;18.77;83.97;101476.97;5005982;28;20065;-83
2023/09/07 01:46:28;;;;;;;4.93;3.78;;;;;;;18.75;84.37;101472.63;5020975;28;20061;-81
2023/09/07 01:48:55;;;;;;;6.53;4.05;;;;;;;18.71;84.05;101477.16;5022382;28;20046;-80
2023/09/07 01:51:21;;;;;;;6.55;4.47;;;;;;;18.65;85.00;101472.88;5022751;28;20132;-81
2023/09/07 01:53:49;;;;;;;4.97;4.55;;;;;;;18.54;85.51;101472.34;5008081;28;20050;-80
2023/09/07 01:56:19;;;;;;;4.80;4.40;;;;;;;18.50;86.38;101478.66;5029344;28;20042;-83
2023/09/07 01:58:45;;;;;;;8.65;4.15;;;;;;;18.47;86.21;101476.06;5026297;28;20033;-81
2023/09/07 02:01:27;;;;;;;7.47;4.30;;;;;;;18.43;86.55;101482.38;5036103;28;20044;-82
2023/09/07 02:03:54;;;;;;;5.20;4.70;;;;;;;18.39;86.44;101484.25;5014550;28;20052;-83
2023/09/07 02:06:20;;;;;;;6.78;4.88;;;;;;;18.35;86.65;101485.25;5022005;28;20469;-80
2023/09/07 02:08:48;;;;;;;5.45;4.90;;;;;;;18.33;87.41;101490.59;5013830;28;20124;-84
2023/09/07 02:11:16;;;;;;;5.45;4.95;;;;;;;18.29;87.39;101483.66;5025509;28;20053;-80
2023/09/07 02:13:44;;;;;;;7.47;5.05;;;;;;;18.26;87.52;101483.72;5026565;28;20069;-81
2023/09/07 02:16:11;;;;;;;5.90;4.82;;;;;;;18.25;87.74;101484.66;5028547;28;20103;-81
2023/09/07 02:18:39;;;;;;;4.57;4.18;;;;;;;18.25;88.17;101475.81;5027734;28;20382;-80
2023/09/07 02:21:10;;;;;;;6.55;5.00;;;;;;;18.27;87.95;101484.59;5023020;28;20042;-81
2023/09/07 02:23:37;;;;;;;10.35;4.68;;;;;;;18.19;88.91;101482.16;5026223;28;20144;-80
2023/09/07 02:26:04;;;;;;;6.20;4.60;;;;;;;18.15;89.03;101486.69;5024571;28;20049;-82
2023/09/07 02:28:34;;;;;;;5.05;4.60;;;;;;;18.10;89.97;101490.38;5022417;28;20046;-80
2023/09/07 02:31:05;;;;;;;4.90;4.47;;;;;;;18.08;90.18;101493.06;5023218;28;20049;-80
2023/09/07 02:33:32;;;;;;;4.43;4.05;;;;;;;18.04;90.03;101494.03;5018252;28;20048;-82
2023/09/07 02:35:59;;;;;;;6.63;4.95;;;;;;;17.98;90.07;101489.78;5007347;28;20046;-80
2023/09/07 02:38:25;;;;;;;8.35;5.47;;;;;;;17.95;90.22;101494.28;5020904;28;20044;-81
2023/09/07 02:40:52;;;;;;;5.55;4.65;;;;;;;17.88;90.80;101488.25;5019452;28;20045;-82
2023/09/07 02:43:19;;;;;;;8.75;5.53;;;;;;;17.88;91.13;101490.03;5024823;28;20056;-82
2023/09/07 02:45:45;;;;;;;8.40;5.20;;;;;;;17.83;91.10;101487.50;5016125;28;20589;-82
2023/09/07 02:48:12;;;;;;;6.25;5.05;;;;;;;17.77;91.25;101493.84;5031444;28;20045;-81
2023/09/07 02:50:39;;;;;;;8.43;4.68;;;;;;;17.72;91.39;101490.44;5021238;28;20053;-81
2023/09/07 02:53:06;;;;;;;7.47;4.80;;;;;;;17.72;91.64;101494.84;5018384;28;20057;-83
2023/09/07 02:55:33;;;;;;;4.95;4.45;;;;;;;17.68;91.45;101494.06;5024218;28;20034;-81
2023/09/07 02:57:59;;;;;;;11.77;5.63;;;;;;;17.67;91.70;101492.31;5034041;28;20045;-82
2023/09/07 03:00:26;;;;;;;7.63;4.90;;;;;;;17.64;92.05;101490.63;5034661;28;20044;-80
2023/09/07 03:02:52;;;;;;;6.68;5.35;;;;;;;17.60;91.89;101491.63;5033273;28;20044;-82
2023/09/07 03:05:21;;;;;;;5.47;4.90;;;;;;;17.56;92.09;101491.72;5028058;28;20525;-80
2023/09/07 03:07:48;;;;;;;8.80;5.20;;;;;;;17.46;92.83;101486.66;5025462;28;20056;-80
2023/09/07 03:10:15;;;;;;;6.55;5.10;;;;;;;17.45;93.14;101492.84;5028454;28;20051;-80
2023/09/07 03:12:41;;;;;;;6.20;5.53;;;;;;;17.42;93.03;101487.63;5034475;28;20034;-83
2023/09/07 03:15:08;;;;;;;7.38;5.70;;;;;;;17.45;92.72;101486.69;5033161;28;20041;-81
2023/09/07 03:17:35;;;;;;;7.25;5.70;;;;;;;17.40;93.64;101494.72;5031612;28;20066;-85
2023/09/07 03:20:05;;;;;;;6.55;5.13;;;;;;;17.37;93.17;101486.88;5039912;28;20077;-83
2023/09/07 03:22:32;;;;;;;6.13;5.57;;;;;;;17.32;93.86;101486.97;5036690;28;20065;-80
2023/09/07 03:24:58;;;;;;;6.43;5.45;;;;;;;17.30;93.50;101498.50;5035090;28;20072;-82
2023/09/07 03:27:28;;;;;;;7.65;5.82;;;;;;;17.28;93.89;101485.31;5035392;28;20048;-83
2023/09/07 03:29:56;;;;;;;7.68;6.10;;;;;;;17.23;93.68;101488.97;5032853;28;20038;-80
2023/09/07 03:32:22;;;;;;;10.60;5.40;;;;;;;17.26;93.89;101483.59;5027486;28;20059;-80
2023/09/07 03:34:52;;;;;;;8.18;5.70;;;;;;;17.19;94.20;101491.72;5023256;28;20045;-80
2023/09/07 03:37:19;;;;;;;6.82;5.63;;;;;;;17.14;94.62;101488.31;5016114;28;20049;-85
2023/09/07 03:39:45;;;;;;;8.93;6.45;;;;;;;17.11;94.92;101487.50;5022245;28;20573;-80
2023/09/07 03:42:13;;;;;;;8.07;6.28;;;;;;;17.06;95.18;101490.22;5025057;28;20128;-82
2023/09/07 03:44:40;;;;;;;7.03;5.80;;;;;;;17.04;95.21;101486.75;5017134;28;20092;-81
2023/09/07 03:47:07;;;;;;;9.30;6.05;;;;;;;16.98;95.42;101482.47;5023152;28;20041;-80
2023/09/07 03:49:33;;;;;;;6.40;5.72;;;;;;;17.01;95.15;101492.09;5017833;28;20120;-81
2023/09/07 03:52:00;;;;;;;7.95;6.95;;;;;;;17.01;95.59;101486.81;5019937;28;20059;-84
2023/09/07 03:54:26;;;;;;;10.23;6.63;;;;;;;16.96;95.42;101489.59;5014425;28;20061;-80
2023/09/07 03:56:53;;;;;;;10.27;5.53;;;;;;;16.98;95.30;101497.47;5029239;28;20033;-80
2023/09/07 03:59:20;;;;;;;8.38;6.10;;;;;;;16.94;95.71;101499.31;5025336;28;20529;-83
2023/09/07 04:01:46;;;;;;;8.27;7.32;;;;;;;16.88;95.95;101494.13;5017263;28;20065;-81
2023/09/07 04:04:13;;;;;;;6.57;5.60;;;;;;;16.84;96.52;101498.63;5024909;28;20041;-80
2023/09/07 04:06:39;;;;;;;9.00;5.78;;;;;;;16.80;96.66;101493.41;5018604;28;20044;-79
2023/09/07 04:09:06;;;;;;;8.02;5.82;;;;;;;16.84;96.08;101501.28;5026759;28;20037;-80
2023/09/07 04:11:33;;;;;;;11.52;6.65;;;;;;;16.75;96.81;101490.91;5021296;28;20099;-81
2023/09/07 04:13:59;;;;;;;10.32;6.45;;;;;;;16.68;97.50;101500.69;5003021;28;20119;-80
2023/09/07 04:16:26;;;;;;;7.28;6.55;;;;;;;16.59;97.62;101497.41;5020746;28;20026;-81
2023/09/07 04:18:52;;;;;;;9.02;6.55;;;;;;;16.55;98.10;101504.50;5018420;28;20451;-81
2023/09/07 04:21:19;;;;;;;8.93;6.78;;;;;;;16.53;98.35;101501.00;5002461;28;20140;-81
2023/09/07 04:23:45;;;;;;;10.07;7.32;;;;;;;16.51;98.94;101503.69;5006779;28;20056;-81
2023/09/07 04:26:12;;;;;;;8.48;6.60;;;;;;;16.48;98.94;101501.13;5014586;28;20152;-81
2023/09/07 04:28:42;;;;;;;9.73;7.30;;;;;;;16.45;99.25;101498.56;5013853;28;20056;-82
2023/09/07 04:31:14;;;;;;;9.15;6.82;;;;;;;16.50;99.01;101509.00;5018765;28;20061;-82
2023/09/07 04:33:40;;;;;;;7.63;6.75;;;;;;;16.44;99.78;101504.72;5010513;28;20049;-83
2023/09/07 04:36:13;;;;;;;10.32;7.38;;;;;;;16.38;100.00;101507.50;5019294;28;20044;-80
2023/09/07 04:38:41;;;;;;;8.23;7.28;;;;;;;16.40;100.00;101516.28;5018970;28;20052;-83
2023/09/07 04:41:09;;;;;;;7.32;6.53;;;;;;;16.39;100.00;101511.88;5001797;28;20088;-83
2023/09/07 04:43:36;;;;;;;8.05;7.18;;;;;;;16.36;100.00;101510.16;5017387;28;20050;-81
2023/09/07 04:46:04;;;;;;;13.52;7.03;;;;;;;16.32;100.00;101519.06;5019423;28;20033;-84
2023/09/07 04:48:31;;;;;;;11.80;6.82;;;;;;;16.31;100.00;101525.22;4997789;28;20134;-83
2023/09/07 04:51:06;;;;;;;9.13;6.55;;;;;;;16.31;100.00;101514.66;5015752;28;20041;-80
2023/09/07 04:53:35;;;;;;;12.80;7.75;;;;;;;16.34;100.00;101519.03;5022655;28;20054;-83
2023/09/07 04:56:03;;;;;;;8.80;7.03;;;;;;;16.32;100.00;101526.97;5022107;28;20069;-82
2023/09/07 04:58:30;;;;;;;10.52;8.13;;;;;;;16.31;100.00;101517.31;5021905;28;20041;-80
2023/09/07 05:01:08;;;;;;;7.90;7.18;;;;;;;16.32;100.00;101526.09;5019568;28;20474;-84
2023/09/07 05:03:35;;;;;;;7.80;6.93;;;;;;;16.33;100.00;101517.28;5018237;28;20046;-80
2023/09/07 05:06:03;;;;;;;13.15;8.15;;;;;;;16.33;100.00;101518.13;5023528;28;20048;-82
2023/09/07 05:08:31;;;;;;;12.20;7.82;;;;;;;16.38;100.00;101516.28;5000576;28;20144;-80
2023/09/07 05:11:00;;;;;;;8.68;7.45;;;;;;;16.40;100.00;101518.03;5017979;28;20030;-82
2023/09/07 05:13:28;;;;;;;12.68;8.18;;;;;;;16.42;100.00;101516.22;5015511;28;20111;-82
2023/09/07 05:16:00;;;;;;;11.38;7.60;;;;;;;16.40;100.00;101512.75;5020502;28;20450;-81
2023/09/07 05:18:26;;;;;;;11.60;7.40;;;;;;;16.35;100.00;101512.84;5014938;28;20485;-80
2023/09/07 05:20:53;;;;;;;10.35;7.57;;;;;;;16.39;100.00;101514.53;5003333;28;20401;-80
2023/09/07 05:23:21;;;;;;;12.48;10.70;;;;;;;16.44;99.93;101524.97;5009984;28;20049;-80
2023/09/07 05:25:52;;;;;;;9.10;7.65;;;;;;;16.45;99.88;101518.81;5021519;28;20037;-82
2023/09/07 05:28:19;;;;;;;11.73;7.45;;;;;;;16.43;99.63;101523.28;5018776;28;20049;-79
2023/09/07 05:30:46;;;;;;;8.68;7.68;;;;;;;16.43;99.86;101524.13;5017114;28;20044;-80
2023/09/07 05:33:17;;;;;;;9.98;7.68;;;;;;;16.47;99.76;101519.66;5001240;28;20479;-80
2023/09/07 05:35:45;;;;;;;12.02;7.93;;;;;;;16.45;99.77;101524.09;5013797;28;20058;-81
2023/09/07 05:38:12;;;;;;;10.57;7.43;;;;;;;16.46;99.77;101523.19;5015924;28;20038;-82
2023/09/07 05:40:44;;;;;;;9.30;8.35;;;;;;;16.43;100.00;101523.28;5018191;28;20049;-82
2023/09/07 05:43:12;;;;;;;8.50;7.32;;;;;;;16.49;99.82;101518.72;5002927;28;20057;-82
2023/09/07 05:45:41;;;;;;;8.75;7.95;;;;;;;16.58;99.42;101524.72;5017514;28;20056;-79
2023/09/07 05:48:09;;;;;;;10.05;7.30;;;;;;;16.63;99.03;101520.22;5017370;28;20587;-80
2023/09/07 05:50:39;;;;;;;10.40;7.45;;;;;;;16.67;98.65;101528.06;5016963;28;20054;-80
2023/09/07 05:53:09;;;;;;;11.88;8.13;;;;;;;16.74;98.08;101527.91;5009546;28;20104;-83
2023/09/07 05:55:39;;;;;;;11.70;8.57;;;;;;;16.77;97.82;101530.50;4994599;28;20049;-80
2023/09/07 05:58:09;;;;;;;8.75;7.15;;;;;;;16.76;97.57;101526.97;5014313;28;20370;-81
2023/09/07 06:00:39;;;;;;;11.52;8.93;;;;;;;16.79;97.21;101533.97;5011839;28;20042;-81
2023/09/07 06:03:09;;;;;;;8.82;7.53;;;;;;;16.83;96.93;101531.25;5019696;28;20029;-79
2023/09/07 06:05:39;;;;;;;8.10;6.97;;;;;;;16.87;96.70;101532.06;5002772;28;20068;-82
2023/09/07 06:08:09;;;;;;;11.00;9.05;;;;;;;16.93;96.20;101537.22;5010258;28;20533;-82
2023/09/07 06:10:39;;;;;;;10.85;7.50;;;;;;;17.01;96.01;101524.72;5009271;28;20544;-81
2023/09/07 06:13:08;;;;;;;10.45;8.82;;;;;;;17.14;95.78;101527.97;5009282;28;20048;-79
2023/09/07 06:15:38;;;;;;;11.95;8.63;;;;;;;17.22;95.18;101529.56;4990785;28;20041;-82
2023/09/07 06:18:08;;;;;;;16.00;7.80;;;;;;;17.33;94.67;101539.00;5011665;28;20044;-84
2023/09/07 06:20:37;;;;;;;10.27;7.45;;;;;;;17.46;94.19;101544.88;5011699;28;20060;-80
2023/09/07 06:23:04;;;;;;;11.75;8.48;;;;;;;17.55;93.44;101538.50;4993960;28;20062;-80
2023/09/07 06:25:33;;;;;;;10.20;9.02;;;;;;;17.65;92.50;101542.69;4993329;28;20072;-80
2023/09/07 06:28:00;;;;;;;10.70;7.82;;;;;;;17.83;92.05;101541.34;4984713;28;20042;-80
2023/09/07 06:30:27;;;;;;;8.10;7.30;;;;;;;17.97;91.35;101545.47;5006681;28;20077;-80
2023/09/07 06:32:53;;;;;;;9.43;7.75;;;;;;;18.14;90.92;101551.19;4997938;28;20429;-81
2023/09/07 06:35:20;;;;;;;11.63;8.23;;;;;;;18.34;89.73;101544.47;4997840;28;20054;-80
2023/09/07 06:37:46;;;;;;;16.38;7.97;;;;;;;18.63;89.60;101554.28;5009380;28;20042;-80
2023/09/07 06:40:15;;;;;;;14.43;8.23;;;;;;;21.56;75.40;101544.38;5009294;28;20062;-80
2023/09/07 06:42:42;;;;;;;8.98;7.30;;;;;;;25.37;55.84;101542.88;5016991;28;20085;-83
2023/09/07 06:45:12;;;;;;;12.75;7.95;;;;;;;27.14;47.72;101543.84;5013806;28;20092;-81
2023/09/07 06:47:39;;;;;;;10.68;7.28;;;;;;;28.04;44.48;101545.06;5014768;28;20096;-80
2023/09/07 06:50:08;;;;;;;10.38;7.05;;;;;;;28.32;42.31;101551.22;5001350;28;20720;-80
2023/09/07 06:52:36;;;;;;;9.75;6.97;;;;;;;28.55;42.39;101546.03;5016711;28;20069;-81
2023/09/07 06:55:03;;;;;;;8.35;7.55;;;;;;;29.19;41.13;101545.94;5011631;28;20045;-80
2023/09/07 06:57:30;;;;;;;11.45;6.53;;;;;;;29.46;39.87;101552.94;5012737;28;20402;-80
2023/09/07 06:59:57;;;;;;;8.65;6.70;;;;;;;29.69;39.70;101553.06;5011957;28;20131;-81
2023/09/07 07:02:23;;;;;;;9.93;6.85;;;;;;;30.23;38.24;101553.47;5012922;28;20044;-82
2023/09/07 07:04:50;;;;;;;9.40;7.00;;;;;;;29.77;38.42;101550.63;5013181;28;20046;-83
2023/09/07 07:07:17;;;;;;;6.85;5.97;;;;;;;29.99;38.74;101560.66;5024941;28;20481;-83
2023/09/07 07:09:46;;;;;;;8.40;7.32;;;;;;;30.38;37.81;101552.28;5016095;28;20034;-82
2023/09/07 07:12:13;;;;;;;10.65;7.40;;;;;;;29.46;38.54;101552.94;5020689;28;20045;-82
2023/09/07 07:14:40;;;;;;;13.27;7.88;;;;;;;29.38;39.27;101556.22;5014108;28;20041;-85
2023/09/07 07:17:08;;;;;;;9.38;6.05;;;;;;;30.07;38.48;101545.72;5039332;28;20025;-84
2023/09/07 07:19:36;;;;;;;9.55;7.22;;;;;;;30.54;37.00;101551.94;5031600;28;20109;-85
2023/09/07 07:22:03;;;;;;;7.53;6.47;;;;;;;30.36;37.44;101540.72;5034245;28;20045;-85
2023/09/07 07:24:29;;;;;;;12.60;7.22;;;;;;;31.09;36.03;101554.75;5027559;28;20050;-81
2023/09/07 07:26:56;;;;;;;6.38;5.57;;;;;;;31.22;36.18;101553.75;5020138;28;20045;-80
2023/09/07 07:29:23;;;;;;;7.13;6.25;;;;;;;31.66;35.40;101555.44;5000572;28;20037;-82
2023/09/07 07:31:51;;;;;;;9.77;5.97;;;;;;;30.96;35.79;101556.69;5006052;28;20072;-80
2023/09/07 07:34:17;;;;;;;9.65;6.78;;;;;;;31.69;35.53;101556.19;5007005;28;20041;-82
2023/09/07 07:36:44;;;;;;;7.78;6.53;;;;;;;31.63;35.60;101561.13;5023803;28;20041;-81
2023/09/07 07:39:12;;;;;;;8.75;5.72;;;;;;;31.77;35.48;101559.09;5004214;28;20328;-82
2023/09/07 07:41:39;;;;;;;9.27;6.80;;;;;;;31.72;34.75;101558.63;5012272;28;20061;-83
2023/09/07 07:44:05;;;;;;;7.93;6.28;;;;;;;31.70;35.21;101557.91;5022496;28;20061;-82
2023/09/07 07:46:32;;;;;;;7.55;6.80;;;;;;;32.07;34.38;101552.91;5021067;28;20144;-83
2023/09/07 07:49:00;;;;;;;8.18;6.20;;;;;;;32.19;34.61;101556.44;5019300;28;20494;-80
2023/09/07 07:51:30;;;;;;;10.30;6.55;;;;;;;30.77;36.65;101562.72;5030094;28;20052;-83
2023/09/07 07:53:59;;;;;;;8.85;6.13;;;;;;;32.26;34.15;101556.75;5043542;28;20052;-82
2023/09/07 07:56:29;;;;;;;6.55;5.95;;;;;;;32.11;34.64;101558.91;5040421;28;20056;-81
2023/09/07 07:58:58;;;;;;;7.10;5.38;;;;;;;32.46;34.15;101560.41;5023548;28;20050;-82
2023/09/07 08:01:29;;;;;;;7.50;6.05;;;;;;;33.11;33.41;101560.94;5010437;28;20050;-81
2023/09/07 08:03:59;;;;;;;8.68;5.50;;;;;;;32.72;33.76;101563.53;5026508;28;20049;-81
2023/09/07 08:06:31;;;;;;;5.70;5.20;;;;;;;32.93;33.76;101552.63;5023558;28;20128;-82
2023/09/07 08:08:58;;;;;;;7.15;5.03;;;;;;;33.95;32.52;101550.59;5016771;28;20260;-81
2023/09/07 08:11:26;;;;;;;7.32;5.32;;;;;;;32.37;33.86;101547.66;5027944;28;20179;-80
2023/09/07 08:13:52;;;;;;;10.20;5.90;;;;;;;32.53;34.20;101558.88;5017123;28;20124;-80
2023/09/07 08:16:19;;;;;;;11.25;5.38;;;;;;;32.96;33.47;101546.06;5021682;28;20120;-80
2023/09/07 08:18:46;;;;;;;7.45;5.35;;;;;;;32.42;34.64;101554.38;5022787;28;20041;-81
2023/09/07 08:21:15;;;;;;;6.60;4.82;;;;;;;33.15;33.57;101556.09;5020925;28;20060;-86
2023/09/07 08:23:42;;;;;;;5.55;5.00;;;;;;;32.41;34.65;101550.00;5016093;28;20137;-83
2023/09/07 08:26:09;;;;;;;6.85;5.13;;;;;;;32.88;34.16;101548.59;5023214;28;20108;-83
2023/09/07 08:28:36;;;;;;;6.53;4.97;;;;;;;33.24;34.24;101548.97;5023209;28;20041;-83
2023/09/07 08:31:04;;;;;;;6.05;4.38;;;;;;;33.95;33.05;101550.59;5007400;28;20045;-83
2023/09/07 08:33:40;;;;;;;6.97;4.93;;;;;;;33.27;33.41;101551.44;5001697;28;20077;-83
2023/09/07 08:36:08;;;;;;;5.20;4.75;;;;;;;33.14;33.48;101548.94;5005375;28;20377;-84
2023/09/07 08:38:38;;;;;;;7.13;5.65;;;;;;;33.72;32.54;101550.03;5014380;28;20055;-85
2023/09/07 08:41:08;;;;;;;5.55;4.75;;;;;;;33.54;33.37;101550.72;5019303;28;20041;-85
2023/09/07 08:43:45;;;;;;;5.15;4.38;;;;;;;32.89;34.31;101564.72;5002785;28;20088;-83
2023/09/07 08:46:20;;;;;;;5.30;4.80;;;;;;;32.94;33.47;101564.34;5014392;28;20053;-83
2023/09/07 08:48:47;;;;;;;10.30;5.40;;;;;;;32.15;34.93;101563.03;5003127;28;20148;-83
2023/09/07 08:51:17;;;;;;;8.32;4.40;;;;;;;31.78;35.75;101563.53;5016138;28;20049;-84
2023/09/07 08:53:46;;;;;;;6.15;5.00;;;;;;;31.99;34.91;101556.28;5014331;28;20049;-81
2023/09/07 08:56:14;;;;;;;6.22;5.18;;;;;;;32.75;34.24;101547.00;5003570;28;20461;-82
2023/09/07 08:58:41;;;;;;;7.82;4.55;;;;;;;32.47;34.12;101557.56;5020613;28;20053;-82
2023/09/07 09:01:08;;;;;;;9.30;4.63;;;;;;;32.92;33.74;101548.19;5007979;28;20048;-81
2023/09/07 09:03:36;;;;;;;5.45;4.95;;;;;;;32.24;34.60;101553.31;5018332;28;20506;-82
2023/09/07 09:06:05;;;;;;;8.07;4.93;;;;;;;32.69;33.96;101547.53;5019564;28;20111;-83
2023/09/07 09:08:50;;;;;;;6.22;4.47;;;;;;;33.72;32.73;101552.75;5017020;28;20144;-83
2023/09/07 09:11:18;;;;;;;6.38;4.15;;;;;;;34.41;31.93;101548.06;5020195;28;20487;-82
2023/09/07 09:13:48;;;;;;;7.13;4.18;;;;;;;34.95;31.68;101548.25;5013469;28;20302;-81
2023/09/07 09:16:18;;;;;;;6.57;4.57;;;;;;;34.26;31.79;101548.53;5019419;28;20038;-84
2023/09/07 09:18:52;;;;;;;4.22;3.92;;;;;;;33.56;32.43;101545.16;4999401;28;20077;-83
2023/09/07 09:21:24;;;;;;;6.00;4.20;;;;;;;33.40;32.50;101553.88;5019244;28;20034;-84
2023/09/07 09:23:57;;;;;;;5.20;4.70;;;;;;;33.40;32.92;101551.16;5016863;28;20901;-84
2023/09/07 09:26:24;;;;;;;6.45;4.35;;;;;;;33.62;32.24;101547.31;5015258;28;20760;-81
2023/09/07 09:28:52;;;;;;;4.40;4.10;;;;;;;34.24;32.02;101542.38;5005110;28;20037;-86
2023/09/07 09:31:19;;;;;;;5.22;4.72;;;;;;;33.54;32.15;101549.88;5016845;28;20038;-82
2023/09/07 09:33:51;;;;;;;5.57;3.90;;;;;;;33.79;32.06;101549.34;5006169;28;20045;-84
2023/09/07 09:36:18;;;;;;;4.20;3.80;;;;;;;34.08;31.63;101547.53;5015142;28;20493;-83
2023/09/07 09:38:52;;;;;;;6.90;4.30;;;;;;;35.13;30.04;101544.72;5024960;28;20042;-85
2023/09/07 09:41:19;;;;;;;4.85;4.35;;;;;;;34.62;30.95;101536.97;5018597;28;20048;-83
2023/09/07 09:43:51;;;;;;;9.85;4.30;;;;;;;33.87;31.74;101536.88;5013702;28;20494;-84
2023/09/07 09:46:18;;;;;;;5.55;4.13;;;;;;;33.71;31.90;101541.00;5007870;28;20042;-80
2023/09/07 09:48:45;;;;;;;6.30;4.10;;;;;;;33.99;31.65;101534.84;5022916;28;20072;-83
2023/09/07 09:51:16;;;;;;;5.50;4.80;;;;;;;33.53;31.77;101540.88;5024537;28;20604;-83
2023/09/07 09:53:45;;;;;;;5.72;4.47;;;;;;;33.97;31.59;101535.88;5004750;28;20378;-81
2023/09/07 09:56:12;;;;;;;4.85;3.88;;;;;;;34.23;31.37;101535.22;5019605;28;20046;-82
2023/09/07 09:58:40;;;;;;;4.75;4.28;;;;;;;35.53;30.01;101533.38;5018747;28;20128;-84
2023/09/07 10:01:09;;;;;;;5.18;4.70;;;;;;;34.32;31.47;101525.34;5016831;28;20100;-82
2023/09/07 10:03:45;;;;;;;8.52;4.20;;;;;;;34.27;31.58;101531.19;5024923;28;20045;-82
2023/09/07 10:06:29;;;;;;;7.15;5.18;;;;;;;34.19;31.77;101522.09;5001206;28;20041;-83
2023/09/07 10:08:59;;;;;;;5.57;5.00;;;;;;;34.67;31.05;101523.75;5016833;28;20093;-82
2023/09/07 10:11:39;;;;;;;7.20;4.72;;;;;;;34.73;30.74;101523.16;5017679;28;20041;-82
2023/09/07 10:14:13;;;;;;;6.90;4.35;;;;;;;35.18;30.25;101516.03;5018896;28;20034;-82
2023/09/07 10:16:48;;;;;;;4.47;4.07;;;;;;;35.17;30.53;101516.19;5021496;28;20059;-83
2023/09/07 10:19:26;;;;;;;6.68;4.53;;;;;;;33.49;31.86;101515.00;5024849;28;20358;-83
2023/09/07 10:21:56;;;;;;;8.38;4.88;;;;;;;34.69;30.67;101519.00;5007692;28;20049;-85
2023/09/07 10:24:30;;;;;;;5.15;4.65;;;;;;;35.86;29.26;101508.31;5020080;28;20140;-83
2023/09/07 10:27:15;;;;;;;5.35;4.40;;;;;;;36.24;28.55;101504.28;5020908;28;20045;-85
2023/09/07 10:29:53;;;;;;;5.28;4.35;;;;;;;35.35;29.64;101503.44;5026913;28;20881;-83
2023/09/07 10:32:20;;;;;;;12.02;5.53;;;;;;;34.71;30.80;101506.13;5023542;28;20073;-82
2023/09/07 10:34:48;;;;;;;7.22;4.40;;;;;;;35.15;30.07;101510.91;5018612;28;20055;-84
2023/09/07 10:37:17;;;;;;;8.07;4.30;;;;;;;36.50;28.25;101506.13;5005509;28;20378;-83
2023/09/07 10:39:47;;;;;;;4.10;3.80;;;;;;;36.19;28.19;101509.38;5014406;28;20545;-84
2023/09/07 10:42:28;;;;;;;4.78;4.13;;;;;;;35.14;29.76;101503.75;5008407;28;20446;-82
2023/09/07 10:44:55;;;;;;;11.15;4.32;;;;;;;35.37;29.61;101511.44;5025430;28;20050;-80
2023/09/07 10:47:22;;;;;;;5.82;3.83;;;;;;;35.71;29.50;101505.25;5028248;28;20050;-84
2023/09/07 10:49:49;;;;;;;4.72;4.10;;;;;;;36.38;28.79;101502.00;5018358;28;20751;-84
2023/09/07 10:52:15;;;;;;;4.75;3.72;;;;;;;37.58;26.99;101504.50;5021819;28;20061;-83
2023/09/07 10:54:43;;;;;;;3.83;3.42;;;;;;;36.66;27.01;101485.38;5023180;28;20080;-83
2023/09/07 10:57:18;;;;;;;5.93;4.07;;;;;;;36.99;27.15;101488.22;5014672;28;20046;-85
2023/09/07 10:59:48;;;;;;;6.72;4.45;;;;;;;37.40;27.02;101491.88;5020660;28;20132;-84
2023/09/07 11:02:16;;;;;;;3.88;3.55;;;;;;;37.49;26.88;101492.72;5017354;28;20037;-84
2023/09/07 11:04:45;;;;;;;6.80;3.97;;;;;;;37.59;26.53;101487.09;5025106;28;20409;-83
2023/09/07 11:07:12;;;;;;;5.32;3.55;;;;;;;36.67;27.24;101487.94;5018073;28;20053;-86
2023/09/07 11:09:43;;;;;;;4.13;3.80;;;;;;;37.29;27.10;101474.94;5006610;28;20049;-85
2023/09/07 11:12:15;;;;;;;6.30;3.58;;;;;;;37.63;26.54;101474.78;5008932;28;20525;-84
2023/09/07 11:14:42;;;;;;;5.07;4.18;;;;;;;38.13;25.76;101481.00;5021467;28;20049;-86
2023/09/07 11:17:08;;;;;;;6.00;4.15;;;;;;;37.81;25.93;101490.16;5003557;28;20042;-83
2023/09/07 11:19:40;;;;;;;4.57;4.18;;;;;;;37.74;25.78;101482.63;5023404;28;20048;-83
2023/09/07 11:22:16;;;;;;;4.22;3.85;;;;;;;37.01;27.23;101467.91;5017098;28;20037;-84
2023/09/07 11:24:43;;;;;;;4.30;3.90;;;;;;;36.42;27.12;101468.75;5003661;28;20432;-83
2023/09/07 11:27:17;;;;;;;7.40;4.05;;;;;;;35.25;29.00;101475.44;5003329;28;20567;-82
2023/09/07 11:29:53;;;;;;;4.75;4.22;;;;;;;35.88;28.48;101468.13;5000588;28;20042;-85